Flight Track Log - Related Links

Times and Time Zones

All times are in EDT time to prevent confusion due to time zone crossing. See the CPZ5750 flight status page for this flight to view local times or setup timezone preferences in your user account.

Time Position Orientation Groundspeed Altitude Reporting Facility
EDT Latitude Longitude Course Direction KTS MPH feet Rate Location/Type
Thu 07:53:41 PM 39.7000 -86.3000 North 169 194 1,500  Level Indianapolis TRACON
Thu 07:54:05 PM 39.6833 -86.3167 218° Southwest 159 183 2,200 1,912 Climbing Indianapolis TRACON
Thu 07:55:12 PM 39.6333 -86.3786 224° Southwest 209 241 4,400 2,484 Climbing Indianapolis Center
Thu 07:56:13 PM 39.5900 -86.4436 229° Southwest 242 278 7,500 3,171 Climbing Indianapolis Center
Thu 07:57:15 PM 39.6256 -86.5072 306° West 229 264 10,900 2,293 Climbing Indianapolis Center
Thu 07:58:16 PM 39.7028 -86.5136 356° North 270 311 12,200 1,902 Climbing Indianapolis Center
Thu 07:59:00 PM 39.7875 -86.3784 North  Level Estimated
Thu 07:59:18 PM 39.7903 -86.5150 359° North 297 342 14,800  Level Indianapolis Center
Thu 08:00:19 PM 39.8772 -86.5603 338° Northwest 329 379 15,800 1,512 Climbing Indianapolis Center
Thu 08:01:21 PM 39.9692 -86.6072 339° North 345 397 17,900 1,805 Climbing Indianapolis Center
Thu 08:02:22 PM 40.0608 -86.6528 339° North 349 402 19,500 1,632 Climbing Indianapolis Center
Thu 08:03:26 PM 40.1747 -86.7117 338° Northwest 366 421 21,300 1,571 Climbing Chicago Center
Thu 08:04:28 PM 40.2731 -86.7614 339° North 376 433 22,800 1,355 Climbing Chicago Center
Thu 08:05:30 PM 40.3731 -86.8128 339° North 386 444 24,100 1,161 Climbing Chicago Center
Thu 08:06:32 PM 40.4758 -86.8656 339° North 396 456 25,200 1,016 Climbing Chicago Center
Thu 08:07:34 PM 40.5803 -86.9189 339° North 404 465 26,200 1,113 Climbing Chicago Center
Thu 08:08:36 PM 40.7097 -86.9853 339° North 409 471 27,500 1,210 Climbing Chicago Center
Thu 08:09:38 PM 40.8139 -87.0397 338° Northwest 408 470 28,700 1,161 Climbing Chicago Center
Thu 08:10:40 PM 40.9167 -87.0928 339° North 401 461 29,900 1,016 Climbing Chicago Center
Thu 08:11:42 PM 41.0189 -87.1475 338° Northwest 400 460 30,800 968 Climbing Chicago Center
Thu 08:12:44 PM 41.1072 -87.2258 326° Northwest 386 444 31,900 968 Climbing Chicago Center
Thu 08:13:46 PM 41.1953 -87.3044 326° Northwest 386 444 32,800 726 Climbing Chicago Center
Thu 08:14:48 PM 41.3125 -87.3728 336° Northwest 392 451 33,400 484 Climbing Chicago Center
Thu 08:15:50 PM 41.4139 -87.4231 340° North 394 453 33,800 432 Climbing Chicago Center
Thu 08:16:53 PM 41.5169 -87.4742 340° North 398 458 34,300 480 Climbing Chicago Center
Thu 08:17:55 PM 41.6197 -87.5247 340° North 398 458 34,800 532 Climbing Chicago Center
Thu 08:18:57 PM 41.7400 -87.5839 340° North 391 450 35,400 532 Climbing Chicago Center
Thu 08:19:59 PM 41.8406 -87.6347 339° North 389 448 35,900 290 Climbing Chicago Center
Thu 08:21:01 PM 41.9403 -87.6847 340° North 387 445 36,000 48 Climbing Chicago Center
Thu 08:22:03 PM 42.0417 -87.7361 339° North 391 450 36,000  Level Chicago Center
Thu 08:23:05 PM 42.1425 -87.7869 340° North 391 450 36,000  Level Chicago Center
Thu 08:24:07 PM 42.2603 -87.8458 340° North 380 437 36,000  Level Chicago Center
Thu 08:25:09 PM 42.3583 -87.8961 339° North 381 438 36,000  Level Chicago Center
Thu 08:26:11 PM 42.4567 -87.9472 339° North 381 438 36,000  Level Chicago Center
Thu 08:27:13 PM 42.5556 -87.9964 340° North 381 438 36,000  Level Chicago Center
Thu 08:28:15 PM 42.6522 -88.0453 340° North 374 430 36,000  Level Chicago Center
Thu 08:29:17 PM 42.7511 -88.1419 324° Northwest 372 428 36,000  Level Chicago Center
Thu 08:30:20 PM 42.8247 -88.2397 316° Northwest 370 426 36,000  Level Chicago Center
Thu 08:31:22 PM 42.8928 -88.3303 316° Northwest 370 426 36,000  Level Chicago Center
Thu 08:32:24 PM 42.9817 -88.4489 316° Northwest 374 430 36,000  Level Chicago Center
Thu 08:33:26 PM 43.0436 -88.5369 314° West 375 432 36,000  Level Chicago Center
Thu 08:34:28 PM 43.1322 -88.6544 316° Northwest 373 429 36,000  Level Chicago Center
Thu 08:35:30 PM 43.2047 -88.7514 316° Northwest 372 428 36,000  Level Chicago Center
Thu 08:36:32 PM 43.2808 -88.8558 315° West 373 429 36,000  Level Chicago Center
Thu 08:37:34 PM 43.3558 -88.9553 316° Northwest 376 433 36,000  Level Chicago Center
Thu 08:38:36 PM 43.4311 -89.0569 316° Northwest 381 438 36,000  Level Chicago Center
Thu 08:39:38 PM 43.5019 -89.1556 315° West 372 428 36,000  Level Chicago Center
Thu 08:40:40 PM 43.5872 -89.2753 315° West 370 426 36,000  Level Chicago Center
Thu 08:41:42 PM 43.6600 -89.3753 315° West 371 427 36,000  Level Chicago Center
Thu 08:42:44 PM 43.7333 -89.4786 315° West 373 429 36,000  Level Chicago Center
Thu 08:43:46 PM 43.8044 -89.5775 315° West 373 429 36,000  Level Chicago Center
Thu 08:44:48 PM 43.8894 -89.6983 314° West 372 428 36,000 -194 Level Chicago Center
Thu 08:45:50 PM 43.9631 -89.8019 315° West 379 436 35,600 -726 Descending Chicago Center
Thu 08:46:52 PM 44.0344 -89.9031 315° West 375 432 34,500 -774 Descending Chicago Center
Thu 08:47:54 PM 44.1017 -90.0081 312° West 370 426 34,000 -244 Descending Chicago Center
Thu 08:48:55 PM 44.1656 -90.1250 307° West 373 429 34,000  Level Minneapolis Center
Thu 08:49:57 PM 44.2411 -90.2611 308° West 374 430 34,000  Level Minneapolis Center
Thu 08:50:59 PM 44.3047 -90.3753 308° West 377 434 34,000  Level Minneapolis Center
Thu 08:52:01 PM 44.3656 -90.4931 306° West 380 437 34,000  Level Minneapolis Center
Thu 08:53:03 PM 44.4150 -90.6197 299° West 376 433 34,000  Level Minneapolis Center
Thu 08:54:05 PM 44.4656 -90.7478 299° West 377 434 34,000  Level Minneapolis Center
Thu 08:55:07 PM 44.5256 -90.9047 298° West 381 438 34,000 -968 Level Minneapolis Center
Thu 08:56:09 PM 44.5764 -91.0336 299° West 381 438 32,000 -2,081 Descending Minneapolis Center
Thu 08:57:11 PM 44.6292 -91.1711 298° West 393 452 29,700 -2,274 Descending Minneapolis Center
Thu 08:58:13 PM 44.6831 -91.3117 298° West 406 467 27,300 -2,274 Descending Minneapolis Center
Thu 08:59:15 PM 44.7342 -91.4469 298° West 400 460 25,000 -1,984 Descending Minneapolis Center
Thu 09:00:17 PM 44.7739 -91.5508 298° West 389 448 23,200 -2,304 Descending Minneapolis Center
Thu 09:01:20 PM 44.8414 -91.7297 298° West 374 430 20,200 -2,400 Descending Minneapolis Center
Thu 09:02:22 PM 44.8869 -91.8539 297° West 363 418 18,200 -1,887 Descending Minneapolis Center
Thu 09:03:24 PM 44.9325 -91.9736 298° West 352 405 16,300 -2,032 Descending Minneapolis Center
Thu 09:04:26 PM 44.9772 -92.0939 298° West 347 399 14,000 -2,032 Descending Minneapolis Center
Thu 09:05:28 PM 45.0200 -92.2103 298° West 338 389 12,100 -1,452 Descending Minneapolis Center
Thu 09:06:30 PM 45.0381 -92.3631 280° West 340 391 11,000 -823 Descending Minneapolis Center
Thu 09:07:32 PM 45.0100 -92.4936 253° West 344 396 10,400 -823 Descending Minneapolis Center
Thu 09:08:34 PM 44.9572 -92.5892 232° Southwest 310 357 9,300 -1,355 Descending Minneapolis Center
Thu 09:09:36 PM 44.9086 -92.6808 233° Southwest 295 339 7,600 -1,306 Descending Minneapolis Center
Thu 09:10:38 PM 44.8611 -92.7678 232° Southwest 283 326 6,600 -1,235 Descending Minneapolis Center
Thu 09:11:52 PM 44.8244 -92.8589 240° Southwest 275 316 4,800 -1,314 Descending Minneapolis Center
Thu 09:12:55 PM 44.8239 -92.9922 270° West 241 277 3,600 -960 Descending Minneapolis Center
Thu 09:13:57 PM 44.8264 -93.0672 273° West 192 221 2,800 -774 Descending Minneapolis Center
Thu 09:14:59 PM 44.8489 -93.1192 301° West 159 183 2,000 -726 Descending Minneapolis Center
Thu 09:16:01 PM 44.8683 -93.1639 302° West 138 159 1,300 -677 Descending Minneapolis Center
Thu 09:18:00 PM 44.8667 -93.2167 245° Southwest  Level FlightAware Approximate

Login

Don't have an account? Register now (free) for customized features, flight alerts, and more!